Forest fire From: 22-04-2019 23:00 Until: 24-04-2019 22:59 warning for: Forest fire Level: Yellow info button



Nære METAR værraporter

   
ENGM - Oslo
Oppdatert: 24-04-2019 03:50
Klart  
Klart  
   Vind: Nord 2.1 m/s
Vind: Nord 2.1 m/s
Temperatur: 1°C
Wind Chill: -1°C
Duggpunkt: -3°C
Luftfuktighet: 75%
Barometer: 1021 hPa
Sikt: More than 10 km
Detaljer skyer: Klart
ENGM 240150Z 36004KT CAVOK 01/M03 Q1021
ENTO - Sandefjord
Oppdatert: 24-04-2019 03:50
Klart  
Klart  
   Vind: NØ 3.1 m/s
Vind: NØ 3.1 m/s
Temperatur: 10°C
Wind Chill: 8°C
Duggpunkt: -2°C
Luftfuktighet: 43%
Barometer: 1018 hPa
Skyer: Klart
Sikt: More than 10 km
Detaljer skyer: Klart
ENTO 240150Z AUTO 04006KT 9999 NCD 10/M02 Q1018
ENNO - Notodden
Oppdatert: 23-04-2019 18:50
Oppdatert, se klokkeslett
Klart  
Klart  
   Vind: SØ 1.5 m/s
Vind: SØ 1.5 m/s
Temperatur: 18°C
Duggpunkt: -1°C
Luftfuktighet: 28%
Barometer: 1019 hPa
Sikt: More than 10 km
Detaljer skyer: Klart
ENNO 231650Z 13003KT CAVOK 18/M01 Q1019
ENRY - Rygge
Oppdatert: 24-04-2019 03:50
Klart  
Klart  
   Vind: Øst 5.7 m/s
Vind: Øst 5.7 m/s
Temperatur: 11°C
Duggpunkt: -4°C
Luftfuktighet: 35%
Barometer: 1019 hPa
Skyer: Klart
Sikt: 10 km
Detaljer skyer: Klart
ENRY 240150Z AUTO 08011KT 9999NDV NCD 11/M04 Q1019
ENSN - Skien
Oppdatert: 09-11-2015 09:50
Oppdatert, se klokkeslett
Klart  
Klart  
   Vind: SSV 5.1 m/s<br />Gust to 5.1 m/s
Vind: SSV 5.1 m/s
Gust to 5.1 m/s
Temperatur: 7°C
Wind Chill: 4°C
Duggpunkt: 3°C
Luftfuktighet: 76%
Barometer: 1000 hPa
Sikt: More than 10 km
Detaljer skyer: Klart
ENSN 090850Z 20010G22KT 150V240 CAVOK 07/03 Q1000
ENFG - Fagernes
Oppdatert: 22-04-2018 10:50
Oppdatert, se klokkeslett
Klart  
Klart  
   Vind: Sør 3.6 m/s
Vind: Sør 3.6 m/s
Temperatur: 6°C
Wind Chill: 3°C
Duggpunkt: -3°C
Luftfuktighet: 53%
Barometer: 1014 hPa
Sikt: More than 10 km
Detaljer skyer: Klart
ENFG 220850Z 19007KT CAVOK 06/M03 Q1014

Script utviklet av  Saratoga-weather.org Tilpasset for tamplaten av  Weerstation Leuven

Du finner min vær info også på:

European Weather Network

Weather Underground

European Weather Network